TAF Text Data
IDs:
Format:
Raw Decoded Include METAR

Data at: 1251 UTC 21 Oct 2018

KDVN 211152Z AUTO 00000KT 10SM CLR M05/M07 A3039 RMK AO2 SLP297 I6000 T10501067 11022 21056 53000


KMLI 211152Z 00000KT 10SM CLR M03/M06 A3038 RMK AO2 SLP294 I1000 I6000 T10331056 11006 21039 53000

KMLI 211128Z 2112/2212 00000KT P6SM SKC
  FM211500 21010KT P6SM SKC
  FM220300 20007KT P6SM SKC WS020/24035KT
  FM220900 23006KT P6SM FEW250